This demonstration page uses our WeatherBlox Daily Observations layout. Learn more.

38.80484, -77.04692

Hourly Observations for August 11, 2019

Temp ( °F °C ) Dew Point ( °F °C ) Humidity (%) Winds ( mph kmh ) Pressure ( in mb ) Visibility ( mi km ) Precip ( " mm )
1:52 am 01:52 Mostly Clear 72 22.2 59 15 64 64 N 9 15 29.97 1015 10 16.09344 0 0
2:52 am 02:52 Partly Cloudy 70 21.1 60 15.6 71 71 N 8 13 29.97 1015 10 16.09344 0 0
3:52 am 03:52 Mostly Cloudy 71 21.7 57 13.9 61 61 NW 6 9 29.97 1015 10 16.09344 0 0
4:52 am 04:52 Partly Cloudy 69 20.6 57 13.9 66 66 NNW 9 15 29.97 1015 10 16.09344 0 0
5:52 am 05:52 Mostly Clear 68 20 56 13.3 65 65 NNW 8 13 30 1016 10 16.09344 0 0
6:52 am 06:52 Mostly Sunny 68 20 56 13.3 65 65 NNW 7 11 30.03 1017 10 16.09344 0 0
7:52 am 07:52 Mostly Sunny 71 21.7 56 13.3 59 59 NNW 7 11 30.06 1018 10 16.09344 0 0
8:52 am 08:52 Sunny 75 23.9 55 12.8 50 50 N 7 11 30.06 1018 10 16.09344 0 0
9:52 am 09:52 Mostly Sunny 78 25.6 53 11.7 42 42 NNE 7 11 30.06 1018 10 16.09344 0 0
10:52 am 10:52 Mostly Sunny 80 26.7 53 11.7 39 39 Calm 30.06 1018 10 16.09344 0 0
11:52 am 11:52 Partly Cloudy 80 26.7 52 11.1 38 38 VRB 3 6 30.06 1018 10 16.09344 0 0
12:52 pm 12:52 Sunny 83 28.3 52 11.1 34 34 VRB 5 7 30.06 1018 10 16.09344 0 0
1:52 pm 13:52 Mostly Sunny 86 30 53 11.7 32 32 NNE 10 17 30.03 1017 10 16.09344 0 0
2:52 pm 14:52 Partly Cloudy 86 30 51 10.6 30 30 NNE 9 15 30.03 1017 10 16.09344 0 0
3:52 pm 15:52 Mostly Sunny 86 30 53 11.7 32 32 N 14 22 30 1016 10 16.09344 0 0
4:52 pm 16:52 Partly Cloudy 85 29.4 54 12.2 35 35 NNW 10 17 30 1016 10 16.09344 0 0
5:52 pm 17:52 Mostly Sunny 84 28.9 54 12.2 36 36 N 12 19 30 1016 10 16.09344 0 0
6:52 pm 18:52 Mostly Sunny 83 28.3 53 11.7 36 36 NNW 8 13 30 1016 10 16.09344 0 0
7:52 pm 19:52 Mostly Sunny 80 26.7 53 11.7 39 39 NNW 9 15 30 1016 10 16.09344 0 0
8:52 pm 20:52 Mostly Clear 80 26.7 54 12.2 41 41 NNE 5 7 30 1016 10 16.09344 0 0
9:52 pm 21:52 Mostly Clear 76 24.4 60 15.6 58 58 SSE 5 7 30 1016 10 16.09344 0 0
10:52 pm 22:52 Mostly Clear 75 23.9 61 16.1 62 62 SSE 5 7 30.03 1017 10 16.09344 0 0
11:52 pm 23:52 Mostly Clear 75 23.9 61 16.1 62 62 SSE 3 6 30 1016 10 16.09344 0 0

Powered by AerisWeather